createdAt,value
2018-08-29T00:00:18.211Z,0.00
2018-08-29T00:01:18.433Z,0.00
2018-08-29T00:02:18.668Z,0.00
2018-08-29T00:03:18.886Z,0.00
2018-08-29T00:04:19.112Z,0.00
2018-08-29T00:05:19.339Z,0.00
2018-08-29T00:06:19.566Z,0.00
2018-08-29T00:07:19.792Z,0.00
2018-08-29T00:08:20.019Z,0.00
2018-08-29T00:09:20.251Z,0.00
2018-08-29T00:10:20.477Z,0.00
2018-08-29T00:11:20.711Z,0.00
2018-08-29T00:12:20.932Z,0.00
2018-08-29T00:13:21.156Z,0.00
2018-08-29T00:14:21.382Z,0.00
2018-08-29T00:15:21.618Z,0.00
2018-08-29T00:16:21.844Z,0.00
2018-08-29T00:17:22.073Z,0.00
2018-08-29T00:18:22.297Z,0.00
2018-08-29T00:19:22.525Z,0.00
2018-08-29T00:20:22.749Z,0.00
2018-08-29T00:21:22.981Z,0.00
2018-08-29T00:22:23.209Z,0.00
2018-08-29T00:23:23.435Z,0.00
2018-08-29T00:24:23.661Z,0.00
2018-08-29T00:25:23.883Z,0.00
2018-08-29T00:26:24.108Z,0.00
2018-08-29T00:27:24.339Z,0.00
2018-08-29T00:28:24.568Z,0.00
2018-08-29T00:29:24.794Z,0.00
2018-08-29T00:30:25.020Z,0.00
2018-08-29T00:31:25.260Z,0.00
2018-08-29T00:32:25.482Z,0.00
2018-08-29T00:33:25.714Z,0.00
2018-08-29T00:34:25.942Z,0.00
2018-08-29T00:35:26.164Z,0.00
2018-08-29T00:36:26.393Z,0.00
2018-08-29T00:37:26.623Z,0.00
2018-08-29T00:38:26.848Z,0.00
2018-08-29T00:39:27.074Z,0.00
2018-08-29T00:40:27.312Z,0.00
2018-08-29T00:41:27.541Z,0.00
2018-08-29T00:42:27.768Z,0.00
2018-08-29T00:43:27.999Z,0.00
2018-08-29T00:44:28.222Z,0.00
2018-08-29T00:45:28.448Z,0.00
2018-08-29T00:46:28.676Z,0.00
2018-08-29T00:47:28.916Z,0.00
2018-08-29T00:48:29.129Z,0.00
2018-08-29T00:49:29.360Z,0.00
2018-08-29T00:50:29.584Z,0.00
2018-08-29T00:51:29.811Z,0.00
2018-08-29T00:52:30.041Z,0.00
2018-08-29T00:53:30.272Z,0.00
2018-08-29T00:54:30.494Z,0.00
2018-08-29T00:55:30.723Z,0.00
2018-08-29T00:56:30.949Z,0.00
2018-08-29T00:57:31.176Z,0.00
2018-08-29T00:58:31.403Z,0.00
2018-08-29T00:59:31.629Z,0.00
2018-08-29T01:00:31.861Z,0.00
2018-08-29T01:01:32.085Z,0.00
2018-08-29T01:02:32.307Z,0.00
2018-08-29T01:03:32.590Z,0.00
2018-08-29T01:04:32.760Z,0.00
2018-08-29T01:05:33.153Z,0.00
2018-08-29T01:06:33.257Z,0.00
2018-08-29T01:07:33.491Z,0.00
2018-08-29T01:08:33.704Z,0.00
2018-08-29T01:09:33.936Z,0.00
2018-08-29T01:10:34.164Z,0.00
2018-08-29T01:11:34.394Z,0.00
2018-08-29T01:12:34.619Z,0.00
2018-08-29T01:13:34.850Z,0.00
2018-08-29T01:14:35.075Z,0.00
2018-08-29T01:15:35.304Z,0.00
2018-08-29T01:16:35.532Z,0.00
2018-08-29T01:17:35.754Z,0.00
2018-08-29T01:18:35.987Z,0.00
2018-08-29T01:19:36.212Z,0.00
2018-08-29T01:20:36.439Z,0.00
2018-08-29T01:21:36.669Z,0.00
2018-08-29T01:22:36.893Z,0.00
2018-08-29T01:23:37.121Z,0.00
2018-08-29T01:24:37.347Z,0.00
2018-08-29T01:25:37.574Z,0.00
2018-08-29T01:26:37.801Z,0.00
2018-08-29T01:27:38.028Z,0.00
2018-08-29T01:28:38.258Z,0.00
2018-08-29T01:29:38.476Z,0.00
2018-08-29T01:30:38.703Z,0.00
2018-08-29T01:31:38.929Z,0.00
2018-08-29T01:32:39.154Z,0.00
2018-08-29T01:33:39.389Z,0.00
2018-08-29T01:34:39.606Z,0.00
2018-08-29T01:35:39.834Z,0.00
2018-08-29T01:36:40.055Z,0.00
2018-08-29T01:37:40.283Z,0.00
2018-08-29T01:38:40.511Z,0.00
2018-08-29T01:39:40.739Z,0.00
2018-08-29T01:40:40.973Z,0.00
2018-08-29T01:41:41.197Z,0.00
2018-08-29T01:42:41.429Z,0.00
2018-08-29T01:43:41.650Z,0.00
2018-08-29T01:44:41.881Z,0.00
2018-08-29T01:45:42.108Z,0.00
2018-08-29T01:46:42.333Z,0.00
2018-08-29T01:47:42.560Z,0.00
2018-08-29T01:48:42.786Z,0.00
2018-08-29T01:49:43.079Z,0.00
2018-08-29T01:50:43.171Z,0.00
2018-08-29T01:51:43.399Z,0.00
2018-08-29T01:52:43.626Z,0.00
2018-08-29T01:53:43.854Z,0.00
2018-08-29T01:54:44.080Z,0.00
2018-08-29T01:55:44.303Z,0.00
2018-08-29T01:56:44.538Z,0.00
2018-08-29T01:57:44.760Z,0.00
2018-08-29T01:58:44.985Z,0.00
2018-08-29T01:59:45.214Z,0.00
2018-08-29T02:00:45.447Z,0.00
2018-08-29T02:01:45.670Z,0.00
2018-08-29T02:02:45.901Z,0.00
2018-08-29T02:03:46.126Z,0.00
2018-08-29T02:04:46.353Z,0.00
2018-08-29T02:05:46.582Z,0.00
2018-08-29T02:06:46.815Z,0.00
2018-08-29T02:07:47.047Z,0.00
2018-08-29T02:08:47.273Z,0.00
2018-08-29T02:09:47.501Z,0.00
2018-08-29T02:10:47.740Z,0.00
2018-08-29T02:11:47.952Z,0.00
2018-08-29T02:12:48.177Z,0.00
2018-08-29T02:13:48.405Z,0.00
2018-08-29T02:14:48.638Z,0.00
2018-08-29T02:15:48.865Z,0.00
2018-08-29T02:16:49.093Z,0.00
2018-08-29T02:17:57.093Z,0.00
2018-08-29T02:18:49.563Z,0.00
2018-08-29T02:19:49.795Z,0.00
2018-08-29T02:20:50.023Z,0.00
2018-08-29T02:21:50.270Z,0.00
2018-08-29T02:22:50.481Z,0.00
2018-08-29T02:23:50.705Z,0.00
2018-08-29T02:24:50.933Z,0.00
2018-08-29T02:25:51.175Z,0.00
2018-08-29T02:26:51.389Z,0.00
2018-08-29T02:27:51.619Z,0.00
2018-08-29T02:28:51.842Z,0.00
2018-08-29T02:29:52.066Z,0.00
2018-08-29T02:30:52.300Z,0.00
2018-08-29T02:31:52.514Z,0.00
2018-08-29T02:32:52.741Z,0.00
2018-08-29T02:33:52.979Z,0.00
2018-08-29T02:34:53.206Z,0.00
2018-08-29T02:35:53.434Z,0.00
2018-08-29T02:36:53.663Z,0.00
2018-08-29T02:37:53.891Z,0.00
2018-08-29T02:38:54.131Z,0.00
2018-08-29T02:39:54.353Z,0.00
2018-08-29T02:40:54.579Z,0.00
2018-08-29T02:41:54.809Z,0.00
2018-08-29T02:42:55.040Z,0.00
2018-08-29T02:43:55.263Z,0.00
2018-08-29T02:44:55.489Z,0.00
2018-08-29T02:45:55.721Z,0.00
2018-08-29T02:46:55.950Z,0.00
2018-08-29T02:47:56.177Z,0.00
2018-08-29T02:48:56.401Z,0.00
2018-08-29T02:49:56.625Z,0.00
2018-08-29T02:50:56.854Z,0.00
2018-08-29T02:51:57.088Z,0.00
2018-08-29T02:52:57.307Z,0.00
2018-08-29T02:53:57.535Z,0.00
2018-08-29T02:54:57.765Z,0.00
2018-08-29T02:55:57.987Z,0.00
2018-08-29T02:56:58.213Z,0.00
2018-08-29T02:57:58.451Z,0.00
2018-08-29T02:58:58.677Z,0.00
2018-08-29T02:59:58.904Z,0.00
2018-08-29T03:00:59.137Z,0.00
2018-08-29T03:01:59.359Z,0.00
2018-08-29T03:02:59.591Z,0.00
2018-08-29T03:03:59.818Z,0.00
2018-08-29T03:05:00.049Z,0.00
2018-08-29T03:06:00.269Z,0.00
2018-08-29T03:07:00.509Z,0.00
2018-08-29T03:08:00.720Z,0.00
2018-08-29T03:09:00.940Z,0.00
2018-08-29T03:10:01.176Z,0.00
2018-08-29T03:11:01.422Z,0.00
2018-08-29T03:12:01.625Z,0.00
2018-08-29T03:13:01.853Z,0.00
2018-08-29T03:14:02.095Z,0.00
2018-08-29T03:15:02.310Z,0.00
2018-08-29T03:16:02.542Z,0.00
2018-08-29T03:17:02.766Z,0.00
2018-08-29T03:18:02.995Z,0.00
2018-08-29T03:19:03.220Z,0.00
2018-08-29T03:20:03.454Z,0.00
2018-08-29T03:21:03.679Z,0.00
2018-08-29T03:22:03.899Z,0.00
2018-08-29T03:23:04.137Z,0.00
2018-08-29T03:24:04.354Z,0.00
2018-08-29T03:25:04.581Z,0.00
2018-08-29T03:26:04.845Z,0.00
2018-08-29T03:27:05.041Z,0.00
2018-08-29T03:28:05.273Z,0.00
2018-08-29T03:29:05.498Z,0.00
2018-08-29T03:30:05.725Z,0.00
2018-08-29T03:31:05.951Z,0.00
2018-08-29T03:32:06.169Z,0.00
2018-08-29T03:33:06.398Z,0.00
2018-08-29T03:34:06.625Z,0.00
2018-08-29T03:35:06.864Z,0.00
2018-08-29T03:36:07.088Z,0.00
2018-08-29T03:37:07.311Z,0.00
2018-08-29T03:38:07.540Z,0.00
2018-08-29T03:39:07.767Z,0.00
2018-08-29T03:40:07.998Z,0.00
2018-08-29T03:41:08.226Z,0.00
2018-08-29T03:42:08.456Z,0.00
2018-08-29T03:43:08.688Z,0.00
2018-08-29T03:44:08.915Z,0.00
2018-08-29T03:45:09.138Z,0.00
2018-08-29T03:46:09.394Z,0.00
2018-08-29T03:47:09.594Z,0.00
2018-08-29T03:48:09.835Z,0.00
2018-08-29T03:49:10.051Z,0.00
2018-08-29T03:50:10.287Z,0.00
2018-08-29T03:51:10.505Z,0.00
2018-08-29T03:52:10.739Z,0.00
2018-08-29T03:53:10.960Z,0.00
2018-08-29T03:54:11.259Z,0.00
2018-08-29T03:55:11.420Z,0.00
2018-08-29T03:56:11.647Z,0.00
2018-08-29T03:57:11.872Z,0.00
2018-08-29T03:58:12.100Z,0.00
2018-08-29T03:59:12.326Z,0.00
2018-08-29T04:00:12.552Z,0.00
2018-08-29T04:01:12.783Z,0.00
2018-08-29T04:02:13.008Z,0.00
2018-08-29T04:03:13.232Z,0.00
2018-08-29T04:04:13.462Z,0.00
2018-08-29T04:05:13.686Z,0.00
2018-08-29T04:06:13.916Z,0.00
2018-08-29T04:07:14.130Z,0.00
2018-08-29T04:08:14.369Z,0.00
2018-08-29T04:09:14.585Z,0.00
2018-08-29T04:10:14.821Z,0.00
2018-08-29T04:11:15.043Z,0.00
2018-08-29T04:12:15.266Z,0.00
2018-08-29T04:13:15.499Z,0.00
2018-08-29T04:14:15.746Z,0.00
2018-08-29T04:15:15.948Z,0.00
2018-08-29T04:16:16.291Z,0.00
2018-08-29T04:17:16.382Z,0.00
2018-08-29T04:18:16.609Z,5.63
2018-08-29T04:19:16.840Z,5.63
2018-08-29T04:20:17.066Z,5.63
2018-08-29T04:21:17.293Z,5.63
2018-08-29T04:22:17.522Z,5.63
2018-08-29T04:23:17.752Z,5.63
2018-08-29T04:24:17.980Z,5.63
2018-08-29T04:25:18.207Z,11.25
2018-08-29T04:26:18.435Z,11.25
2018-08-29T04:27:18.664Z,11.25
2018-08-29T04:28:18.898Z,11.25
2018-08-29T04:29:19.116Z,11.25
2018-08-29T04:30:19.336Z,16.88
2018-08-29T04:31:19.561Z,16.88
2018-08-29T04:32:19.828Z,16.88
2018-08-29T04:33:20.018Z,22.50
2018-08-29T04:34:20.247Z,22.50
2018-08-29T04:35:20.474Z,22.50
2018-08-29T04:36:20.703Z,28.13
2018-08-29T04:37:20.928Z,28.13
2018-08-29T04:38:21.161Z,33.75
2018-08-29T04:39:21.381Z,33.75
2018-08-29T04:40:21.612Z,39.38
2018-08-29T04:41:21.841Z,39.38
2018-08-29T04:42:22.079Z,39.38
2018-08-29T04:43:22.290Z,45.00
2018-08-29T04:44:22.510Z,50.63
2018-08-29T04:45:22.736Z,50.63
2018-08-29T04:46:22.964Z,56.25
2018-08-29T04:47:23.194Z,56.25
2018-08-29T04:48:23.420Z,61.88
2018-08-29T04:49:23.647Z,67.50
2018-08-29T04:50:23.878Z,73.13
2018-08-29T04:51:24.115Z,73.13
2018-08-29T04:52:24.331Z,78.75
2018-08-29T04:53:24.560Z,84.38
2018-08-29T04:54:24.791Z,84.38
2018-08-29T04:55:25.017Z,90.00
2018-08-29T04:56:25.247Z,101.25
2018-08-29T04:57:25.475Z,135.00
2018-08-29T04:58:25.702Z,151.88
2018-08-29T04:59:25.934Z,168.75
2018-08-29T05:00:26.164Z,180.00
2018-08-29T05:01:26.389Z,196.88
2018-08-29T05:02:26.619Z,208.13
2018-08-29T05:03:26.847Z,225.00
2018-08-29T05:04:27.075Z,236.25
2018-08-29T05:05:27.305Z,253.13
2018-08-29T05:06:27.531Z,270.00
2018-08-29T05:07:27.762Z,286.88
2018-08-29T05:08:27.983Z,303.75
2018-08-29T05:09:28.224Z,326.25
2018-08-29T05:10:28.456Z,337.50
2018-08-29T05:11:28.665Z,354.38
2018-08-29T05:12:28.892Z,365.63
2018-08-29T05:13:29.123Z,371.25
2018-08-29T05:14:29.348Z,382.50
2018-08-29T05:15:29.578Z,388.13
2018-08-29T05:16:29.805Z,405.00
2018-08-29T05:17:30.034Z,405.00
2018-08-29T05:18:30.289Z,410.63
2018-08-29T05:19:30.492Z,416.25
2018-08-29T05:20:30.726Z,421.88
2018-08-29T05:21:30.941Z,433.13
2018-08-29T05:22:31.169Z,444.38
2018-08-29T05:23:31.393Z,444.38
2018-08-29T05:24:31.655Z,455.63
2018-08-29T05:25:31.849Z,466.88
2018-08-29T05:26:32.078Z,472.50
2018-08-29T05:27:32.308Z,478.13
2018-08-29T05:28:32.542Z,483.75
2018-08-29T05:29:32.773Z,489.38
2018-08-29T05:30:32.999Z,483.75
2018-08-29T05:31:33.230Z,495.00
2018-08-29T05:32:33.455Z,506.25
2018-08-29T05:33:33.688Z,517.50
2018-08-29T05:34:33.947Z,528.75
2018-08-29T05:35:34.151Z,540.00
2018-08-29T05:36:34.380Z,540.00
2018-08-29T05:37:34.614Z,545.63
2018-08-29T05:38:34.833Z,551.25
2018-08-29T05:39:35.064Z,562.50
2018-08-29T05:40:35.308Z,573.75
2018-08-29T05:41:35.523Z,579.38
2018-08-29T05:42:35.755Z,585.00
2018-08-29T05:43:35.985Z,590.63
2018-08-29T05:44:36.215Z,596.25
2018-08-29T05:45:36.444Z,607.50
2018-08-29T05:46:36.679Z,618.75
2018-08-29T05:47:36.988Z,630.00
2018-08-29T05:48:37.140Z,618.75
2018-08-29T05:49:37.369Z,618.75
2018-08-29T05:50:37.605Z,624.38
2018-08-29T05:51:37.837Z,630.00
2018-08-29T05:52:38.077Z,635.63
2018-08-29T05:53:46.129Z,635.63
2018-08-29T05:54:38.590Z,630.00
2018-08-29T05:55:38.821Z,641.25
2018-08-29T05:56:39.051Z,641.25
2018-08-29T05:57:39.281Z,641.25
2018-08-29T05:58:39.513Z,646.88
2018-08-29T05:59:39.745Z,652.50
2018-08-29T06:00:39.979Z,669.38
2018-08-29T06:01:40.265Z,658.13
2018-08-29T06:02:40.440Z,658.13
2018-08-29T06:03:40.668Z,658.13
2018-08-29T06:04:40.901Z,652.50
2018-08-29T06:05:41.131Z,652.50
2018-08-29T06:06:41.361Z,652.50
2018-08-29T06:07:41.592Z,646.88
2018-08-29T06:08:41.822Z,646.88
2018-08-29T06:09:42.059Z,646.88
2018-08-29T06:10:42.330Z,641.25
2018-08-29T06:11:42.527Z,635.63
2018-08-29T06:12:42.765Z,641.25
2018-08-29T06:13:42.994Z,630.00
2018-08-29T06:14:43.246Z,630.00
2018-08-29T06:15:43.469Z,630.00
2018-08-29T06:16:43.698Z,618.75
2018-08-29T06:17:43.932Z,624.38
2018-08-29T06:18:44.197Z,624.38
2018-08-29T06:19:44.397Z,607.50
2018-08-29T06:20:44.639Z,607.50
2018-08-29T06:21:44.862Z,601.88
2018-08-29T06:22:45.100Z,601.88
2018-08-29T06:23:45.332Z,601.88
2018-08-29T06:24:45.571Z,596.25
2018-08-29T06:25:45.792Z,601.88
2018-08-29T06:26:46.070Z,601.88
2018-08-29T06:27:46.265Z,596.25
2018-08-29T06:28:46.493Z,596.25
2018-08-29T06:29:46.730Z,590.63
2018-08-29T06:30:46.967Z,573.75
2018-08-29T06:31:47.195Z,568.13
2018-08-29T06:32:47.444Z,562.50
2018-08-29T06:33:47.660Z,562.50
2018-08-29T06:34:47.898Z,551.25
2018-08-29T06:35:48.130Z,551.25
2018-08-29T06:36:48.370Z,540.00
2018-08-29T06:37:48.593Z,540.00
2018-08-29T06:38:48.833Z,540.00
2018-08-29T06:39:49.055Z,534.38
2018-08-29T06:40:49.283Z,534.38
2018-08-29T06:41:49.515Z,528.75
2018-08-29T06:42:49.801Z,534.38
2018-08-29T06:43:49.985Z,528.75
2018-08-29T06:44:50.223Z,528.75
2018-08-29T06:45:50.451Z,528.75
2018-08-29T06:46:50.688Z,523.13
2018-08-29T06:47:50.923Z,506.25
2018-08-29T06:48:51.152Z,483.75
2018-08-29T06:49:51.383Z,472.50
2018-08-29T06:50:51.615Z,478.13
2018-08-29T06:51:51.856Z,478.13
2018-08-29T06:52:52.088Z,478.13
2018-08-29T06:53:52.321Z,483.75
2018-08-29T06:54:52.552Z,483.75
2018-08-29T06:55:52.784Z,483.75
2018-08-29T06:56:53.011Z,483.75
2018-08-29T06:57:53.296Z,483.75
2018-08-29T06:58:53.490Z,489.38
2018-08-29T06:59:53.712Z,489.38
2018-08-29T07:00:53.951Z,489.38
2018-08-29T07:01:54.188Z,489.38
2018-08-29T07:02:54.418Z,495.00
2018-08-29T07:03:54.653Z,495.00
2018-08-29T07:04:54.886Z,495.00
2018-08-29T07:05:55.120Z,495.00
2018-08-29T07:06:55.349Z,495.00
2018-08-29T07:07:55.577Z,495.00
2018-08-29T07:08:55.825Z,495.00
2018-08-29T07:09:56.057Z,500.63
2018-08-29T07:10:56.287Z,500.63
2018-08-29T07:11:56.526Z,500.63
2018-08-29T07:12:56.756Z,500.63
2018-08-29T07:13:56.989Z,500.63
2018-08-29T07:14:57.224Z,500.63
2018-08-29T07:15:57.467Z,500.63
2018-08-29T07:16:57.681Z,500.63
2018-08-29T07:17:57.918Z,500.63
2018-08-29T07:18:58.147Z,500.63
2018-08-29T07:19:58.382Z,500.63
2018-08-29T07:20:58.612Z,500.63
2018-08-29T07:21:58.845Z,500.63
2018-08-29T07:22:59.248Z,500.63
2018-08-29T07:23:59.296Z,500.63
2018-08-29T07:24:59.535Z,500.63
2018-08-29T07:25:59.764Z,506.25
2018-08-29T07:27:00.001Z,500.63
2018-08-29T07:28:00.231Z,500.63
2018-08-29T07:29:00.465Z,495.00
2018-08-29T07:30:00.702Z,489.38
2018-08-29T07:31:00.926Z,489.38
2018-08-29T07:32:01.171Z,489.38
2018-08-29T07:33:01.395Z,489.38
2018-08-29T07:34:01.636Z,489.38
2018-08-29T07:35:01.869Z,489.38
2018-08-29T07:36:02.171Z,495.00
2018-08-29T07:37:02.328Z,495.00
2018-08-29T07:38:02.559Z,495.00
2018-08-29T07:39:02.785Z,489.38
2018-08-29T07:40:03.017Z,489.38
2018-08-29T07:41:03.251Z,489.38
2018-08-29T07:42:03.501Z,489.38
2018-08-29T07:43:03.761Z,489.38
2018-08-29T07:44:03.948Z,483.75
2018-08-29T07:45:04.180Z,483.75
2018-08-29T07:46:04.412Z,483.75
2018-08-29T07:47:04.647Z,478.13
2018-08-29T07:48:04.881Z,472.50
2018-08-29T07:49:05.105Z,472.50
2018-08-29T07:50:05.357Z,472.50
2018-08-29T07:51:05.596Z,472.50
2018-08-29T07:52:05.934Z,472.50
2018-08-29T07:53:06.055Z,472.50
2018-08-29T07:54:06.368Z,472.50
2018-08-29T07:55:06.515Z,478.13
2018-08-29T07:56:06.749Z,478.13
2018-08-29T07:57:06.989Z,478.13
2018-08-29T07:58:07.210Z,478.13
2018-08-29T07:59:07.445Z,478.13
2018-08-29T08:00:07.678Z,472.50
2018-08-29T08:01:07.961Z,472.50
2018-08-29T08:02:08.141Z,472.50
2018-08-29T08:03:08.378Z,478.13
2018-08-29T08:04:08.611Z,472.50
2018-08-29T08:05:08.834Z,478.13
2018-08-29T08:06:09.060Z,478.13
2018-08-29T08:07:09.309Z,483.75
2018-08-29T08:08:09.607Z,483.75
2018-08-29T08:09:10.862Z,483.75
2018-08-29T08:10:10.023Z,483.75
2018-08-29T08:11:10.233Z,483.75
2018-08-29T08:12:10.463Z,483.75
2018-08-29T08:13:10.699Z,483.75
2018-08-29T08:14:10.931Z,483.75
2018-08-29T08:15:11.163Z,483.75
2018-08-29T08:16:11.396Z,478.13
2018-08-29T08:17:11.632Z,478.13
2018-08-29T08:18:11.858Z,478.13
2018-08-29T08:19:12.092Z,478.13
2018-08-29T08:20:12.359Z,478.13
2018-08-29T08:21:12.601Z,478.13
2018-08-29T08:22:12.791Z,478.13
2018-08-29T08:23:13.024Z,478.13
2018-08-29T08:24:13.255Z,478.13
2018-08-29T08:25:13.493Z,478.13
2018-08-29T08:26:13.723Z,483.75
2018-08-29T08:27:13.954Z,478.13
2018-08-29T08:28:14.191Z,478.13
2018-08-29T08:29:14.444Z,478.13
2018-08-29T08:30:14.653Z,478.13
2018-08-29T08:31:14.884Z,478.13
2018-08-29T08:32:15.119Z,478.13
2018-08-29T08:33:15.353Z,472.50
2018-08-29T08:34:15.589Z,472.50
2018-08-29T08:35:15.816Z,472.50
2018-08-29T08:36:16.047Z,472.50
2018-08-29T08:37:16.284Z,472.50
2018-08-29T08:38:16.519Z,472.50
2018-08-29T08:39:16.750Z,472.50
2018-08-29T08:40:16.987Z,472.50
2018-08-29T08:41:17.217Z,466.88
2018-08-29T08:42:17.444Z,466.88
2018-08-29T08:43:17.674Z,466.88
2018-08-29T08:44:17.908Z,466.88
2018-08-29T08:45:18.139Z,466.88
2018-08-29T08:46:18.374Z,466.88
2018-08-29T08:47:18.609Z,472.50
2018-08-29T08:48:19.083Z,466.88
2018-08-29T08:49:19.588Z,466.88
2018-08-29T08:50:19.310Z,466.88
2018-08-29T08:51:19.541Z,466.88
2018-08-29T08:52:19.777Z,466.88
2018-08-29T08:53:20.013Z,466.88
2018-08-29T08:54:20.252Z,455.63
2018-08-29T08:55:20.485Z,472.50
2018-08-29T08:56:20.716Z,444.38
2018-08-29T08:57:20.951Z,444.38
2018-08-29T08:58:21.186Z,444.38
2018-08-29T08:59:21.476Z,444.38
2018-08-29T09:00:21.651Z,444.38
2018-08-29T09:01:21.882Z,444.38
2018-08-29T09:02:22.114Z,450.00
2018-08-29T09:03:22.353Z,450.00
2018-08-29T09:04:22.588Z,450.00
2018-08-29T09:05:22.828Z,450.00
2018-08-29T09:06:23.073Z,444.38
2018-08-29T09:07:23.299Z,444.38
2018-08-29T09:08:23.526Z,444.38
2018-08-29T09:09:23.758Z,444.38
2018-08-29T09:10:23.992Z,444.38
2018-08-29T09:11:24.225Z,444.38
2018-08-29T09:12:24.456Z,444.38
2018-08-29T09:13:24.695Z,444.38
2018-08-29T09:14:25.037Z,444.38
2018-08-29T09:15:25.162Z,444.38
2018-08-29T09:16:25.396Z,444.38
2018-08-29T09:17:25.627Z,444.38
2018-08-29T09:18:25.861Z,444.38
2018-08-29T09:19:26.098Z,444.38
2018-08-29T09:20:26.336Z,444.38
2018-08-29T09:21:26.560Z,444.38
2018-08-29T09:22:26.798Z,444.38
2018-08-29T09:23:27.035Z,444.38
2018-08-29T09:24:27.271Z,444.38
2018-08-29T09:25:27.500Z,444.38
2018-08-29T09:26:27.732Z,444.38
2018-08-29T09:27:27.968Z,444.38
2018-08-29T09:28:28.268Z,444.38
2018-08-29T09:29:28.544Z,444.38
2018-08-29T09:30:28.670Z,444.38
2018-08-29T09:31:28.908Z,444.38
2018-08-29T09:32:29.135Z,444.38
2018-08-29T09:33:29.368Z,444.38
2018-08-29T09:34:29.605Z,444.38
2018-08-29T09:35:29.845Z,438.75
2018-08-29T09:36:30.068Z,438.75
2018-08-29T09:37:30.305Z,438.75
2018-08-29T09:38:30.538Z,433.13
2018-08-29T09:39:30.773Z,438.75
2018-08-29T09:40:31.835Z,427.50
2018-08-29T09:41:31.193Z,433.13
2018-08-29T09:42:31.430Z,438.75
2018-08-29T09:43:31.665Z,438.75
2018-08-29T09:44:31.904Z,438.75
2018-08-29T09:45:32.137Z,438.75
2018-08-29T09:46:32.398Z,438.75
2018-08-29T09:47:32.599Z,438.75
2018-08-29T09:48:32.847Z,438.75
2018-08-29T09:49:33.838Z,433.13
2018-08-29T09:50:33.321Z,438.75
2018-08-29T09:51:33.555Z,433.13
2018-08-29T09:52:33.789Z,438.75
2018-08-29T09:53:34.025Z,438.75
2018-08-29T09:54:34.259Z,438.75
2018-08-29T09:55:34.494Z,433.13
2018-08-29T09:56:34.731Z,438.75
2018-08-29T09:57:34.967Z,433.13
2018-08-29T09:58:35.198Z,427.50
2018-08-29T09:59:35.435Z,427.50
2018-08-29T10:00:35.668Z,427.50
2018-08-29T10:01:35.901Z,433.13
2018-08-29T10:02:36.137Z,433.13
2018-08-29T10:03:36.418Z,433.13
2018-08-29T10:04:36.604Z,433.13
2018-08-29T10:05:36.839Z,433.13
2018-08-29T10:06:37.078Z,433.13
2018-08-29T10:07:37.316Z,433.13
2018-08-29T10:08:37.545Z,433.13
2018-08-29T10:09:37.790Z,433.13
2018-08-29T10:10:38.026Z,438.75
2018-08-29T10:11:38.261Z,438.75
2018-08-29T10:12:38.506Z,433.13
2018-08-29T10:13:38.729Z,433.13
2018-08-29T10:14:38.963Z,433.13
2018-08-29T10:15:39.201Z,438.75
2018-08-29T10:16:39.441Z,427.50
2018-08-29T10:17:39.764Z,427.50
2018-08-29T10:18:39.941Z,421.88
2018-08-29T10:19:40.148Z,427.50
2018-08-29T10:20:40.387Z,433.13
2018-08-29T10:21:40.625Z,427.50
2018-08-29T10:22:40.859Z,427.50
2018-08-29T10:23:41.093Z,427.50
2018-08-29T10:24:41.326Z,433.13
2018-08-29T10:25:41.565Z,433.13
2018-08-29T10:26:41.797Z,427.50
2018-08-29T10:27:42.036Z,427.50
2018-08-29T10:28:42.272Z,421.88
2018-08-29T10:29:42.502Z,427.50
2018-08-29T10:30:42.742Z,427.50
2018-08-29T10:31:43.032Z,421.88
2018-08-29T10:32:43.145Z,427.50
2018-08-29T10:33:43.379Z,427.50
2018-08-29T10:34:43.610Z,433.13
2018-08-29T10:35:43.848Z,421.88
2018-08-29T10:36:44.095Z,433.13
2018-08-29T10:37:44.318Z,438.75
2018-08-29T10:38:44.572Z,438.75
2018-08-29T10:39:44.787Z,444.38
2018-08-29T10:40:45.024Z,438.75
2018-08-29T10:41:45.260Z,438.75
2018-08-29T10:42:45.491Z,438.75
2018-08-29T10:43:45.729Z,438.75
2018-08-29T10:44:45.963Z,438.75
2018-08-29T10:45:46.198Z,444.38
2018-08-29T10:46:46.435Z,438.75
2018-08-29T10:47:46.670Z,438.75
2018-08-29T10:48:46.902Z,438.75
2018-08-29T10:49:47.139Z,444.38
2018-08-29T10:50:47.380Z,438.75
2018-08-29T10:51:47.620Z,444.38
2018-08-29T10:52:47.860Z,438.75
2018-08-29T10:53:48.094Z,438.75
2018-08-29T10:54:48.330Z,444.38
2018-08-29T10:55:48.571Z,438.75
2018-08-29T10:56:48.809Z,438.75
2018-08-29T10:57:49.045Z,438.75
2018-08-29T10:58:49.279Z,438.75
2018-08-29T10:59:49.513Z,433.13
2018-08-29T11:00:49.756Z,438.75
2018-08-29T11:01:49.993Z,433.13
2018-08-29T11:02:50.232Z,433.13
2018-08-29T11:03:50.466Z,427.50
2018-08-29T11:04:50.703Z,427.50
2018-08-29T11:05:50.936Z,427.50
2018-08-29T11:06:51.170Z,427.50
2018-08-29T11:07:51.409Z,427.50
2018-08-29T11:08:51.705Z,421.88
2018-08-29T11:09:51.885Z,421.88
2018-08-29T11:10:52.124Z,421.88
2018-08-29T11:11:52.367Z,416.25
2018-08-29T11:12:52.582Z,416.25
2018-08-29T11:13:52.814Z,405.00
2018-08-29T11:14:53.048Z,410.63
2018-08-29T11:15:53.285Z,410.63
2018-08-29T11:16:53.521Z,416.25
2018-08-29T11:17:53.803Z,416.25
2018-08-29T11:18:53.994Z,416.25
2018-08-29T11:19:54.232Z,416.25
2018-08-29T11:20:54.465Z,410.63
2018-08-29T11:21:54.706Z,416.25
2018-08-29T11:22:54.941Z,416.25
2018-08-29T11:23:55.178Z,416.25
2018-08-29T11:24:55.419Z,416.25
2018-08-29T11:25:55.654Z,416.25
2018-08-29T11:26:55.893Z,421.88
2018-08-29T11:27:56.190Z,399.38
2018-08-29T11:28:56.361Z,421.88
2018-08-29T11:29:56.599Z,421.88
2018-08-29T11:30:56.835Z,427.50
2018-08-29T11:31:57.071Z,405.00
2018-08-29T11:32:57.306Z,405.00
2018-08-29T11:33:57.546Z,416.25
2018-08-29T11:34:57.782Z,416.25
2018-08-29T11:35:58.018Z,421.88
2018-08-29T11:36:58.254Z,427.50
2018-08-29T11:37:58.495Z,427.50
2018-08-29T11:38:58.732Z,438.75
2018-08-29T11:39:58.971Z,410.63
2018-08-29T11:40:59.203Z,405.00
2018-08-29T11:41:59.475Z,405.00
2018-08-29T11:42:59.843Z,421.88
2018-08-29T11:43:59.915Z,444.38
2018-08-29T11:45:00.153Z,450.00
2018-08-29T11:46:00.394Z,427.50
2018-08-29T11:47:00.627Z,427.50
2018-08-29T11:48:00.885Z,433.13
2018-08-29T11:49:01.102Z,433.13
2018-08-29T11:50:01.337Z,433.13
2018-08-29T11:51:01.575Z,438.75
2018-08-29T11:52:01.813Z,444.38
2018-08-29T11:53:02.047Z,450.00
2018-08-29T11:54:02.283Z,450.00
2018-08-29T11:55:02.516Z,450.00
2018-08-29T11:56:02.752Z,450.00
2018-08-29T11:57:02.996Z,450.00
2018-08-29T11:58:03.226Z,438.75
2018-08-29T11:59:03.462Z,438.75
2018-08-29T12:00:03.705Z,438.75
2018-08-29T12:01:03.999Z,376.88
2018-08-29T12:02:04.210Z,348.75
2018-08-29T12:03:04.424Z,382.50
2018-08-29T12:04:04.658Z,343.13
2018-08-29T12:05:04.892Z,371.25
2018-08-29T12:06:05.141Z,438.75
2018-08-29T12:07:05.378Z,433.13
2018-08-29T12:08:05.718Z,438.75
2018-08-29T12:09:05.857Z,433.13
2018-08-29T12:10:06.093Z,410.63
2018-08-29T12:11:06.336Z,416.25
2018-08-29T12:12:06.576Z,399.38
2018-08-29T12:13:06.809Z,399.38
2018-08-29T12:14:07.040Z,405.00
2018-08-29T12:15:07.284Z,399.38
2018-08-29T12:16:07.521Z,405.00
2018-08-29T12:17:07.757Z,399.38
2018-08-29T12:18:07.996Z,399.38
2018-08-29T12:19:08.233Z,393.75
2018-08-29T12:20:08.515Z,388.13
2018-08-29T12:21:08.789Z,388.13
2018-08-29T12:22:08.941Z,393.75
2018-08-29T12:23:09.184Z,405.00
2018-08-29T12:24:09.427Z,405.00
2018-08-29T12:25:09.661Z,410.63
2018-08-29T12:26:09.962Z,405.00
2018-08-29T12:27:10.131Z,405.00
2018-08-29T12:28:10.378Z,405.00
2018-08-29T12:29:10.614Z,405.00
2018-08-29T12:30:10.846Z,399.38
2018-08-29T12:31:11.086Z,399.38
2018-08-29T12:32:11.324Z,399.38
2018-08-29T12:33:11.561Z,399.38
2018-08-29T12:34:11.798Z,393.75
2018-08-29T12:35:12.036Z,388.13
2018-08-29T12:36:12.272Z,393.75
2018-08-29T12:37:12.518Z,399.38
2018-08-29T12:38:12.748Z,399.38
2018-08-29T12:39:12.985Z,399.38
2018-08-29T12:40:13.221Z,399.38
2018-08-29T12:41:13.454Z,399.38
2018-08-29T12:42:13.689Z,399.38
2018-08-29T12:43:13.924Z,399.38
2018-08-29T12:44:14.163Z,399.38
2018-08-29T12:45:14.397Z,393.75
2018-08-29T12:46:14.634Z,393.75
2018-08-29T12:47:14.871Z,399.38
2018-08-29T12:48:15.109Z,393.75